»·PEaware :: MNL890 KSFO-CYVR

MNL890 :: KSFO-CYVR

FLIGHT INFORMATION

Flight Status: Arrived
Operator: Unknown
More flights by this operator :: More flights under this callsign
Pilot: Jack S. (366)
Aircraft: BOEING 727-200
(B722)
More flights by this aircraft type
Origin: KSFO San Francisco Intl
United States
Destination: CYVR Vancouver Intl
Canada
More flights between these airports :: More routes between these airports
Route: +SFO8 RBL BTG J1 SEA PAE GRIZZ3
File this flight plan on PilotEdge
Remarks: l mainland 890
Altitude:
(Current/Filed)
330ft
Speed:
(Current/Filed)
500kts
Departed: 15-Jun-12 04:51 PM
Arrived: 15-Jun-12 06:33 PM
Distance/Time
Traveled:
695nm/1:41
Distance/Time
To Go:
Arrived

Flight Plot

Page will automatically refresh every two minutes.

Flight plan parsing failed; only flown route is shown


Map Options




Map Legend


Flown Route
Filed Route
Departure Airport
Arrival Airport
Navaid (VOR, NDB)
Fix

Horizontal Profiles

Position Reports

Time Latitude Longitude Heading Altitude Ground
Speed
15-Jun-12 16:20 37.613999 -122.384538 251 25ft 0kts
15-Jun-12 16:22 37.613999 -122.384538 251 25ft 0kts
15-Jun-12 16:23 37.613999 -122.384538 251 25ft 0kts
15-Jun-12 16:24 37.613999 -122.384538 251 25ft 0kts
15-Jun-12 16:27 37.613986 -122.384532 251 25ft 0kts
15-Jun-12 16:28 37.613986 -122.384532 251 25ft 0kts
15-Jun-12 16:29 37.613986 -122.384532 251 25ft 0kts
15-Jun-12 16:30 37.613986 -122.384532 251 25ft 0kts
15-Jun-12 16:31 37.613986 -122.384532 251 25ft 0kts
15-Jun-12 16:32 37.613986 -122.384532 251 25ft 0kts
15-Jun-12 16:33 37.613986 -122.384532 251 25ft 0kts
15-Jun-12 16:34 37.613986 -122.384532 251 25ft 0kts
15-Jun-12 16:35 37.613986 -122.384532 251 25ft 0kts
15-Jun-12 16:36 37.614097 -122.384213 224 25ft 4kts
15-Jun-12 16:37 37.614291 -122.384117 155 24ft 0kts
15-Jun-12 16:38 37.614291 -122.384117 155 24ft 0kts
15-Jun-12 16:39 37.614075 -122.383824 119 24ft 4kts
15-Jun-12 16:40 37.612336 -122.382462 207 25ft 12kts
15-Jun-12 16:41 37.609449 -122.383734 117 25ft 6kts
15-Jun-12 16:42 37.609277 -122.383319 117 25ft 0kts
15-Jun-12 16:43 37.609277 -122.383319 117 25ft 0kts
15-Jun-12 16:44 37.609045 -122.382305 69 25ft 14kts
15-Jun-12 16:45 37.619970 -122.374859 26 25ft 39kts
15-Jun-12 16:46 37.621410 -122.372372 117 25ft 7kts
15-Jun-12 16:47 37.619864 -122.368664 118 25ft 10kts
15-Jun-12 16:48 37.618487 -122.365389 118 24ft 16kts
15-Jun-12 16:49 37.615400 -122.358123 117 25ft 20kts
15-Jun-12 16:50 37.614620 -122.359732 297 25ft 49kts
15-Jun-12 16:51 37.630513 -122.395836 296 1014ft 137kts
15-Jun-12 16:52 37.650936 -122.445965 296 2465ft 197kts
15-Jun-12 16:53 37.701322 -122.469791 13 4703ft 267kts
15-Jun-12 16:54 37.771902 -122.437006 6 8134ft 272kts
15-Jun-12 16:55 37.847637 -122.424089 2 10862ft 288kts
15-Jun-12 16:56 37.939075 -122.414463 3 12068ft 355kts
15-Jun-12 16:57 38.037906 -122.405852 3 14461ft 365kts
15-Jun-12 16:58 38.141080 -122.397268 1 16245ft 381kts
15-Jun-12 16:59 38.251303 -122.388667 2 17449ft 410kts
15-Jun-12 17:00 38.346403 -122.380906 2 18905ft 417kts
15-Jun-12 17:01 38.461624 -122.371549 2 20465ft 426kts
15-Jun-12 17:02 38.578388 -122.362089 2 21907ft 435kts
15-Jun-12 17:03 38.699413 -122.352362 3 23184ft 447kts
15-Jun-12 17:04 38.824176 -122.342080 3 24474ft 455kts
15-Jun-12 17:05 38.951484 -122.331647 2 25637ft 464kts
15-Jun-12 17:06 39.082081 -122.320917 2 26674ft 473kts
15-Jun-12 17:07 39.211485 -122.310236 1 27805ft 476kts
15-Jun-12 17:08 39.340999 -122.299591 1 29375ft 466kts
15-Jun-12 17:09 39.469239 -122.288935 1 30708ft 458kts
15-Jun-12 17:10 39.594597 -122.278430 1 31937ft 449kts
15-Jun-12 17:11 39.718346 -122.268058 0 32817ft 446kts
15-Jun-12 17:12 39.844470 -122.257551 0 32847ft 461kts
15-Jun-12 17:13 39.974062 -122.246645 1 32844ft 473kts
15-Jun-12 17:14 40.106316 -122.235628 357 32832ft 475kts
15-Jun-12 17:15 40.238046 -122.243832 355 32840ft 475kts
15-Jun-12 17:16 40.370075 -122.251551 356 32839ft 476kts
15-Jun-12 17:17 40.503335 -122.259207 356 32846ft 478kts
15-Jun-12 17:18 40.634982 -122.266936 356 32852ft 480kts
15-Jun-12 17:19 40.768709 -122.274773 356 32851ft 483kts
15-Jun-12 17:20 40.900683 -122.282448 356 32850ft 485kts
15-Jun-12 17:21 41.032777 -122.290239 355 32849ft 486kts
15-Jun-12 17:22 41.166948 -122.298203 355 32897ft 487kts
15-Jun-12 17:23 41.302245 -122.306253 355 33101ft 484kts
15-Jun-12 17:24 41.436316 -122.314428 357 33106ft 485kts
15-Jun-12 17:25 41.569495 -122.322147 355 33109ft 485kts
15-Jun-12 17:26 41.696450 -122.329809 353 33095ft 487kts
15-Jun-12 17:27 41.832345 -122.338175 354 33092ft 489kts
15-Jun-12 17:28 41.968663 -122.346413 354 33089ft 490kts
15-Jun-12 17:29 42.104954 -122.354666 353 33089ft 491kts
15-Jun-12 17:30 42.241732 -122.363095 353 33099ft 492kts
15-Jun-12 17:31 42.378826 -122.371713 355 33103ft 494kts
15-Jun-12 17:32 42.515993 -122.380058 356 33106ft 497kts
15-Jun-12 17:33 42.630787 -122.387150 356 33105ft 500kts
15-Jun-12 17:34 42.790190 -122.397063 356 33100ft 503kts
15-Jun-12 17:35 42.904857 -122.404232 356 33100ft 505kts
15-Jun-12 17:36 43.044980 -122.413056 356 33100ft 507kts
15-Jun-12 17:37 43.185987 -122.421937 356 33102ft 509kts
15-Jun-12 17:38 43.327964 -122.430960 355 33141ft 509kts
15-Jun-12 17:39 43.468485 -122.439951 356 33146ft 508kts
15-Jun-12 17:40 43.609328 -122.449048 357 33167ft 507kts
15-Jun-12 17:41 43.746974 -122.457843 358 33190ft 506kts
15-Jun-12 17:42 43.864069 -122.465363 358 33189ft 507kts
15-Jun-12 17:43 43.980595 -122.472944 358 33189ft 507kts
15-Jun-12 17:44 44.109889 -122.481335 358 33189ft 507kts
15-Jun-12 17:45 44.250483 -122.490552 358 33188ft 507kts
15-Jun-12 17:46 44.391401 -122.499736 358 33191ft 508kts
15-Jun-12 17:47 44.532487 -122.509065 357 33197ft 508kts
15-Jun-12 17:48 44.673519 -122.518485 357 33201ft 508kts
15-Jun-12 17:49 44.814742 -122.527866 357 33204ft 509kts
15-Jun-12 17:50 44.955602 -122.537287 356 33207ft 510kts
15-Jun-12 17:51 45.097242 -122.546901 356 33209ft 511kts
15-Jun-12 17:52 45.239452 -122.556498 356 33203ft 512kts
15-Jun-12 17:53 45.380709 -122.566080 356 33201ft 513kts
15-Jun-12 17:54 45.523061 -122.575852 355 33205ft 514kts
15-Jun-12 17:55 45.664292 -122.585635 356 33204ft 514kts
15-Jun-12 17:56 45.805787 -122.583024 6 33193ft 513kts
15-Jun-12 17:57 45.945785 -122.559663 7 33197ft 513kts
15-Jun-12 17:58 46.087368 -122.536332 6 33206ft 514kts
15-Jun-12 17:59 46.229058 -122.513063 6 33209ft 516kts
15-Jun-12 18:00 46.369750 -122.489798 6 33209ft 517kts
15-Jun-12 18:01 46.512339 -122.466076 6 33231ft 517kts
15-Jun-12 18:02 46.653834 -122.442454 6 33246ft 515kts
15-Jun-12 18:03 46.820947 -122.414247 5 33251ft 514kts
15-Jun-12 18:04 47.032728 -122.378257 5 33259ft 514kts
15-Jun-12 18:05 47.268768 -122.337960 5 33255ft 515kts
15-Jun-12 18:06 47.445027 -122.307818 3 33228ft 493kts
15-Jun-12 18:07 47.571958 -122.300039 1 32078ft 450kts
15-Jun-12 18:08 47.692933 -122.292253 1 30218ft 436kts
15-Jun-12 18:09 47.812561 -122.284366 1 28167ft 429kts
15-Jun-12 18:10 47.930165 -122.278721 348 26299ft 415kts
15-Jun-12 18:11 48.041226 -122.312045 347 24639ft 400kts
15-Jun-12 18:12 48.148177 -122.343399 348 23040ft 386kts
15-Jun-12 18:13 48.252117 -122.373608 348 21414ft 375kts
15-Jun-12 18:14 48.353055 -122.403115 347 19795ft 365kts
15-Jun-12 18:15 48.435313 -122.427368 347 18513ft 356kts
15-Jun-12 18:17 48.625158 -122.483590 347 15390ft 342kts
15-Jun-12 18:18 48.713056 -122.516594 319 10835ft 330kts
15-Jun-12 18:19 48.765987 -122.615792 306 9715ft 283kts
15-Jun-12 18:20 48.813539 -122.708651 307 7563ft 275kts
15-Jun-12 18:21 48.860122 -122.800032 308 6370ft 271kts
15-Jun-12 18:22 48.906028 -122.890383 307 5223ft 268kts
15-Jun-12 18:23 48.951297 -122.979589 308 4331ft 264kts
15-Jun-12 18:24 49.019132 -123.000212 0 3798ft 261kts
15-Jun-12 18:25 49.066953 -122.942075 85 3293ft 262kts
15-Jun-12 18:26 49.108815 -122.880145 349 3294ft 254kts
15-Jun-12 18:27 49.166544 -122.927674 277 2908ft 233kts
15-Jun-12 18:28 49.167507 -123.011951 280 1954ft 167kts
15-Jun-12 18:29 49.173855 -123.067283 280 1236ft 131kts
15-Jun-12 18:30 49.180137 -123.121000 279 575ft 130kts
15-Jun-12 18:31 49.186289 -123.174756 279 26ft 110kts
15-Jun-12 18:32 49.189696 -123.188307 345 26ft 6kts
15-Jun-12 18:33 49.189588 -123.184821 99 26ft 11kts
15-Jun-12 18:34 49.189331 -123.180783 31 26ft 7kts
15-Jun-12 18:35 49.191331 -123.181478 340 26ft 10kts
15-Jun-12 18:36 49.192167 -123.182063 332 26ft 0kts

Navigation Log

Ident Type
Flight plan parsing failed, navigation log unavailable